Time;durP1;ratioP1;P1;durP2;ratioP2;P2;SDS_P1;SDS_P2;PMS_P1;PMS_P2;Temp;Humidity;BMP_temperature;BMP_pressure;BME280_temperature;BME280_humidity;BME280_pressure;Samples;Min_cycle;Max_cycle;Signal;HPM_P1;HPM_P2
2024/02/27 00:00:31;;;;;;;2.15;1.75;;;;;;;;;;5056699;28;20041;-66
2024/02/27 00:02:57;;;;;;;2.17;1.88;;;;;;;;;;5056240;28;20497;-66
2024/02/27 00:05:25;;;;;;;1.10;0.93;;;;;;;;;;5058842;28;20036;-66
2024/02/27 00:07:51;;;;;;;0.80;0.70;;;;;;;;;;5059061;28;20044;-66
2024/02/27 00:10:17;;;;;;;1.00;0.90;;;;;;;;;;5051959;28;20041;-66
2024/02/27 00:12:44;;;;;;;1.90;1.20;;;;;;;;;;5058177;28;20032;-68
2024/02/27 00:15:10;;;;;;;0.75;0.63;;;;;;;;;;5057628;28;20037;-67
2024/02/27 00:17:36;;;;;;;0.52;0.50;;;;;;;;;;5068626;28;20391;-66
2024/02/27 00:20:04;;;;;;;1.55;1.38;;;;;;;;;;5044575;28;20255;-66
2024/02/27 00:22:31;;;;;;;3.88;1.80;;;;;;;;;;5062922;28;20040;-66
2024/02/27 00:24:57;;;;;;;1.90;1.55;;;;;;;;;;5062469;28;20517;-66
2024/02/27 00:27:23;;;;;;;1.65;1.40;;;;;;;;;;5058724;28;20055;-66
2024/02/27 00:29:49;;;;;;;1.80;1.30;;;;;;;;;;5059065;28;20040;-66
2024/02/27 00:32:15;;;;;;;1.63;1.02;;;;;;;;;;5056734;28;20045;-66
2024/02/27 00:34:41;;;;;;;1.95;0.88;;;;;;;;;;5062263;28;20048;-66
2024/02/27 00:37:07;;;;;;;1.52;1.17;;;;;;;;;;5059656;28;20043;-66
2024/02/27 00:39:33;;;;;;;2.35;1.65;;;;;;;;;;5063814;28;20048;-66
2024/02/27 00:42:01;;;;;;;2.75;1.65;;;;;;;;;;5054356;28;20421;-66
2024/02/27 00:44:27;;;;;;;2.50;1.70;;;;;;;;;;5054256;28;20037;-66
2024/02/27 00:46:53;;;;;;;3.13;1.50;;;;;;;;;;5056069;28;20032;-66
2024/02/27 00:49:19;;;;;;;2.95;1.73;;;;;;;;;;5058038;28;20382;-66
2024/02/27 00:51:45;;;;;;;3.15;1.90;;;;;;;;;;5055974;28;20489;-66
2024/02/27 00:54:12;;;;;;;3.85;1.92;;;;;;;;;;5058715;28;20049;-66
2024/02/27 00:56:38;;;;;;;3.75;2.30;;;;;;;;;;5052999;28;20043;-66
2024/02/27 00:59:04;;;;;;;4.15;2.28;;;;;;;;;;5054504;28;20108;-66
2024/02/27 01:01:30;;;;;;;2.80;2.15;;;;;;;;;;5061130;28;20033;-66
2024/02/27 01:03:56;;;;;;;2.75;2.15;;;;;;;;;;5056789;28;20028;-66
2024/02/27 01:06:22;;;;;;;3.85;2.50;;;;;;;;;;5062904;28;20044;-66
2024/02/27 01:08:48;;;;;;;2.72;2.10;;;;;;;;;;5061010;28;20032;-66
2024/02/27 01:11:14;;;;;;;3.03;2.28;;;;;;;;;;5061379;28;20486;-66
2024/02/27 01:13:41;;;;;;;2.42;1.90;;;;;;;;;;5058503;28;20385;-66
2024/02/27 01:16:07;;;;;;;3.80;2.28;;;;;;;;;;5053815;28;20052;-66
2024/02/27 01:18:33;;;;;;;2.80;1.90;;;;;;;;;;5057324;28;20048;-66
2024/02/27 01:21:00;;;;;;;5.55;2.15;;;;;;;;;;5057130;28;20390;-66
2024/02/27 01:23:27;;;;;;;3.60;2.00;;;;;;;;;;5057430;28;20033;-65
2024/02/27 01:25:53;;;;;;;3.03;2.10;;;;;;;;;;5064800;28;20386;-65
2024/02/27 01:28:19;;;;;;;3.35;2.00;;;;;;;;;;5064184;28;20045;-66
2024/02/27 01:30:46;;;;;;;2.70;1.98;;;;;;;;;;5064871;28;20040;-66
2024/02/27 01:33:12;;;;;;;4.72;2.65;;;;;;;;;;5065460;28;20466;-66
2024/02/27 01:35:38;;;;;;;3.05;2.20;;;;;;;;;;5064387;28;20044;-66
2024/02/27 01:38:04;;;;;;;3.28;2.35;;;;;;;;;;5060845;28;20028;-66
2024/02/27 01:40:30;;;;;;;2.65;1.98;;;;;;;;;;5059955;28;20064;-66
2024/02/27 01:42:56;;;;;;;2.40;2.20;;;;;;;;;;5059892;28;20484;-66
2024/02/27 01:45:22;;;;;;;3.97;2.50;;;;;;;;;;5059062;28;20044;-66
2024/02/27 01:47:50;;;;;;;2.83;2.50;;;;;;;;;;5057785;28;20503;-66
2024/02/27 01:50:17;;;;;;;4.57;2.30;;;;;;;;;;5060337;28;20053;-66
2024/02/27 01:52:45;;;;;;;2.53;1.60;;;;;;;;;;5100166;22;20046;-65
2024/02/27 01:55:14;;;;;;;2.90;2.20;;;;;;;;;;5084323;28;20053;-64
2024/02/27 01:57:40;;;;;;;2.20;1.92;;;;;;;;;;5086558;28;20043;-64
2024/02/27 02:00:09;;;;;;;3.50;2.00;;;;;;;;;;5102069;27;20032;-65
2024/02/27 02:02:43;;;;;;;4.22;2.28;;;;;;;;;;5083502;28;20027;-65
2024/02/27 02:05:09;;;;;;;4.72;2.47;;;;;;;;;;5082854;28;20519;-65
2024/02/27 02:07:35;;;;;;;3.25;2.00;;;;;;;;;;5087742;28;20036;-67
2024/02/27 02:10:02;;;;;;;2.25;1.90;;;;;;;;;;5087083;28;20052;-65
2024/02/27 02:12:28;;;;;;;2.33;1.60;;;;;;;;;;5087574;28;20039;-64
2024/02/27 02:14:54;;;;;;;3.15;1.90;;;;;;;;;;5082760;28;20044;-65
2024/02/27 02:17:20;;;;;;;2.67;1.98;;;;;;;;;;5084566;28;20040;-65
2024/02/27 02:19:46;;;;;;;2.95;1.70;;;;;;;;;;5086379;28;20036;-65
2024/02/27 02:22:12;;;;;;;3.40;1.85;;;;;;;;;;5080943;28;20425;-66
2024/02/27 02:24:38;;;;;;;2.97;2.03;;;;;;;;;;5086719;28;20043;-66
2024/02/27 02:27:05;;;;;;;2.80;2.10;;;;;;;;;;5082489;28;20044;-65
2024/02/27 02:29:31;;;;;;;3.45;2.33;;;;;;;;;;5082127;28;20040;-66
2024/02/27 02:31:57;;;;;;;3.10;2.22;;;;;;;;;;5081590;28;20075;-65
2024/02/27 02:34:23;;;;;;;4.13;2.75;;;;;;;;;;5098221;28;20052;-65
2024/02/27 02:36:50;;;;;;;3.03;2.42;;;;;;;;;;5085568;28;20043;-65
2024/02/27 02:39:16;;;;;;;3.90;2.70;;;;;;;;;;5082229;28;20067;-65
2024/02/27 02:41:42;;;;;;;3.78;2.45;;;;;;;;;;5083495;28;20411;-64
2024/02/27 02:44:08;;;;;;;4.15;2.90;;;;;;;;;;5083707;28;20043;-65
2024/02/27 02:46:37;;;;;;;3.60;2.85;;;;;;;;;;5085586;28;20055;-65
2024/02/27 02:49:03;;;;;;;5.60;2.80;;;;;;;;;;5081411;28;20036;-64
2024/02/27 02:51:32;;;;;;;5.97;3.55;;;;;;;;;;5098070;28;20047;-65
2024/02/27 02:53:58;;;;;;;6.13;3.17;;;;;;;;;;5083141;28;20051;-65
2024/02/27 02:56:24;;;;;;;8.85;4.47;;;;;;;;;;5085319;28;20032;-66
2024/02/27 02:58:50;;;;;;;15.68;4.53;;;;;;;;;;5085247;28;20044;-67
2024/02/27 03:01:17;;;;;;;6.70;3.90;;;;;;;;;;5080150;28;20044;-66
2024/02/27 03:03:43;;;;;;;7.13;4.45;;;;;;;;;;5086999;28;20036;-66
2024/02/27 03:06:09;;;;;;;7.97;4.78;;;;;;;;;;5083341;28;20511;-65
2024/02/27 03:08:35;;;;;;;9.20;4.45;;;;;;;;;;5083217;28;20070;-66
2024/02/27 03:11:01;;;;;;;10.02;5.45;;;;;;;;;;5081395;28;20033;-66
2024/02/27 03:13:27;;;;;;;6.82;4.63;;;;;;;;;;5084422;28;20413;-65
2024/02/27 03:15:53;;;;;;;8.57;5.43;;;;;;;;;;5081995;28;20032;-65
2024/02/27 03:18:19;;;;;;;9.18;5.22;;;;;;;;;;5083376;28;20425;-65
2024/02/27 03:20:46;;;;;;;9.48;5.40;;;;;;;;;;5084289;28;20507;-65
2024/02/27 03:23:12;;;;;;;8.68;5.28;;;;;;;;;;5080948;28;20048;-66
2024/02/27 03:25:38;;;;;;;9.85;5.47;;;;;;;;;;5084146;28;20035;-65
2024/02/27 03:28:04;;;;;;;8.75;5.45;;;;;;;;;;5081100;28;20040;-65
2024/02/27 03:30:30;;;;;;;8.73;5.20;;;;;;;;;;5083225;28;20036;-67
2024/02/27 03:32:56;;;;;;;9.70;5.35;;;;;;;;;;5083101;28;20047;-66
2024/02/27 03:35:25;;;;;;;8.82;5.68;;;;;;;;;;5082590;28;20052;-65
2024/02/27 03:37:51;;;;;;;11.97;6.07;;;;;;;;;;5082537;28;20136;-67
2024/02/27 03:40:17;;;;;;;11.13;6.32;;;;;;;;;;5080630;28;21109;-67
2024/02/27 03:42:43;;;;;;;10.05;5.95;;;;;;;;;;5083707;28;20376;-65
2024/02/27 03:45:10;;;;;;;10.98;5.50;;;;;;;;;;5078032;28;20032;-65
2024/02/27 03:47:36;;;;;;;12.43;6.40;;;;;;;;;;5082180;28;20649;-65
2024/02/27 03:50:03;;;;;;;10.52;6.10;;;;;;;;;;5079794;28;20040;-66
2024/02/27 03:52:30;;;;;;;11.10;6.35;;;;;;;;;;5098184;28;20147;-66
2024/02/27 03:54:56;;;;;;;10.65;6.18;;;;;;;;;;5079492;28;20695;-66
2024/02/27 03:57:23;;;;;;;10.52;6.10;;;;;;;;;;5087365;28;20110;-67
2024/02/27 03:59:49;;;;;;;12.98;6.63;;;;;;;;;;5083461;28;20040;-65
2024/02/27 04:02:15;;;;;;;11.93;7.05;;;;;;;;;;5088318;28;20043;-68
2024/02/27 04:04:41;;;;;;;12.23;6.63;;;;;;;;;;5086558;28;20044;-66
2024/02/27 04:07:07;;;;;;;13.43;6.72;;;;;;;;;;5080479;28;20055;-66
2024/02/27 04:09:33;;;;;;;12.95;6.80;;;;;;;;;;5086330;28;20385;-66
2024/02/27 04:11:59;;;;;;;12.50;6.80;;;;;;;;;;5090247;28;20510;-67
2024/02/27 04:14:25;;;;;;;14.75;7.50;;;;;;;;;;5085711;28;20177;-66
2024/02/27 04:16:52;;;;;;;12.27;7.05;;;;;;;;;;5079455;28;20047;-67
2024/02/27 04:19:18;;;;;;;12.57;7.07;;;;;;;;;;5088084;28;20074;-68
2024/02/27 04:21:44;;;;;;;13.25;7.15;;;;;;;;;;5086211;28;20040;-67
2024/02/27 04:24:10;;;;;;;14.20;7.30;;;;;;;;;;5089786;28;20043;-66
2024/02/27 04:26:36;;;;;;;12.60;7.32;;;;;;;;;;5080923;28;20385;-66
2024/02/27 04:29:02;;;;;;;14.82;7.38;;;;;;;;;;5090266;28;20036;-66
2024/02/27 04:31:28;;;;;;;13.40;6.70;;;;;;;;;;5086675;28;20400;-66
2024/02/27 04:33:54;;;;;;;14.73;7.43;;;;;;;;;;5084909;28;20063;-67
2024/02/27 04:36:20;;;;;;;13.50;7.97;;;;;;;;;;5081481;28;20513;-66
2024/02/27 04:38:47;;;;;;;13.88;7.28;;;;;;;;;;5081792;28;20051;-65
2024/02/27 04:41:13;;;;;;;12.80;7.82;;;;;;;;;;5078389;28;20055;-65
2024/02/27 04:43:39;;;;;;;13.00;7.15;;;;;;;;;;5082867;28;20039;-66
2024/02/27 04:46:05;;;;;;;14.55;7.30;;;;;;;;;;5076429;28;20056;-65
2024/02/27 04:48:31;;;;;;;14.38;7.28;;;;;;;;;;5078806;28;20040;-66
2024/02/27 04:50:57;;;;;;;15.80;8.07;;;;;;;;;;5078100;28;20437;-66
2024/02/27 04:53:23;;;;;;;16.17;8.25;;;;;;;;;;5082553;28;20048;-65
2024/02/27 04:55:49;;;;;;;13.50;8.15;;;;;;;;;;5084764;28;20052;-66
2024/02/27 04:58:15;;;;;;;19.80;8.18;;;;;;;;;;5088676;28;20985;-64
2024/02/27 05:00:42;;;;;;;15.80;7.75;;;;;;;;;;5091661;28;20066;-66
2024/02/27 05:03:08;;;;;;;13.35;7.13;;;;;;;;;;5085369;28;20032;-65
2024/02/27 05:05:36;;;;;;;15.23;7.35;;;;;;;;;;5084427;28;20499;-66
2024/02/27 05:08:02;;;;;;;13.40;7.20;;;;;;;;;;5085731;28;20043;-66
2024/02/27 05:10:28;;;;;;;14.63;7.93;;;;;;;;;;5087025;28;20048;-65
2024/02/27 05:12:54;;;;;;;16.10;7.93;;;;;;;;;;5086780;28;20396;-66
2024/02/27 05:15:20;;;;;;;17.48;8.15;;;;;;;;;;5084886;28;20045;-65
2024/02/27 05:17:46;;;;;;;16.52;8.07;;;;;;;;;;5084150;28;20416;-66
2024/02/27 05:20:13;;;;;;;13.85;7.43;;;;;;;;;;5083676;28;20040;-66
2024/02/27 05:22:39;;;;;;;16.60;8.75;;;;;;;;;;5090352;28;20043;-66
2024/02/27 05:25:05;;;;;;;15.18;8.32;;;;;;;;;;5082344;28;20051;-65
2024/02/27 05:27:32;;;;;;;21.35;9.00;;;;;;;;;;5102024;28;20043;-66
2024/02/27 05:29:58;;;;;;;17.45;9.15;;;;;;;;;;5084833;28;20059;-66
2024/02/27 05:32:24;;;;;;;15.50;8.73;;;;;;;;;;5087159;28;20036;-66
2024/02/27 05:34:50;;;;;;;16.27;8.98;;;;;;;;;;5085671;28;20054;-67
2024/02/27 05:37:16;;;;;;;17.90;8.73;;;;;;;;;;5100154;27;20059;-66
2024/02/27 05:39:42;;;;;;;18.88;9.23;;;;;;;;;;5086060;28;20028;-66
2024/02/27 05:42:08;;;;;;;17.52;8.77;;;;;;;;;;5086917;28;20055;-65
2024/02/27 05:44:34;;;;;;;19.73;8.77;;;;;;;;;;5086323;28;20050;-65
2024/02/27 05:47:00;;;;;;;17.33;8.77;;;;;;;;;;5084114;28;20048;-65
2024/02/27 05:49:26;;;;;;;16.90;8.63;;;;;;;;;;5085046;28;20501;-65
2024/02/27 05:51:52;;;;;;;18.17;8.93;;;;;;;;;;5086606;28;20059;-66
2024/02/27 05:54:18;;;;;;;14.45;8.35;;;;;;;;;;5088260;28;20400;-65
2024/02/27 05:56:44;;;;;;;20.60;9.60;;;;;;;;;;5089791;28;20047;-66
2024/02/27 05:59:10;;;;;;;18.75;9.57;;;;;;;;;;5092797;28;20040;-65
2024/02/27 06:01:37;;;;;;;19.88;9.85;;;;;;;;;;5087299;28;20040;-66
2024/02/27 06:04:03;;;;;;;21.30;10.32;;;;;;;;;;5084673;28;20043;-66
2024/02/27 06:06:30;;;;;;;17.58;9.52;;;;;;;;;;5082387;28;20048;-65
2024/02/27 06:08:56;;;;;;;17.17;9.43;;;;;;;;;;5078776;28;20048;-66
2024/02/27 06:11:22;;;;;;;19.38;9.52;;;;;;;;;;5074189;28;20040;-67
2024/02/27 06:13:48;;;;;;;19.63;9.27;;;;;;;;;;5081591;28;20381;-66
2024/02/27 06:16:14;;;;;;;21.65;9.73;;;;;;;;;;5079840;28;20036;-65
2024/02/27 06:18:42;;;;;;;18.02;9.50;;;;;;;;;;5076164;28;20055;-64
2024/02/27 06:23:54;;;;;;;16.67;9.25;;;;;;;;;;5079789;28;20047;-66
2024/02/27 06:26:20;;;;;;;21.30;9.63;;;;;;;;;;5083113;28;20044;-67
2024/02/27 06:28:47;;;;;;;20.02;9.88;;;;;;;;;;5080177;28;20040;-66
2024/02/27 06:31:13;;;;;;;20.63;9.55;;;;;;;;;;5085130;28;20047;-66
2024/02/27 06:33:40;;;;;;;20.02;9.95;;;;;;;;;;5088119;28;20036;-66
2024/02/27 06:36:06;;;;;;;19.80;10.40;;;;;;;;;;5083356;28;20053;-66
2024/02/27 06:38:32;;;;;;;19.42;9.82;;;;;;;;;;5082626;28;20661;-67
2024/02/27 06:40:58;;;;;;;18.60;10.10;;;;;;;;;;5083754;28;20392;-67
2024/02/27 06:43:24;;;;;;;19.42;9.52;;;;;;;;;;5081579;28;20044;-66
2024/02/27 06:45:50;;;;;;;20.60;10.32;;;;;;;;;;5084767;28;20042;-68
2024/02/27 06:48:16;;;;;;;22.33;10.52;;;;;;;;;;5099563;28;20043;-68
2024/02/27 06:50:42;;;;;;;19.80;9.57;;;;;;;;;;5083413;28;20044;-66
2024/02/27 06:53:09;;;;;;;19.77;10.05;;;;;;;;;;5085105;28;20059;-67
2024/02/27 06:55:35;;;;;;;21.85;10.77;;;;;;;;;;5086876;28;20032;-65
2024/02/27 06:58:02;;;;;;;19.80;10.40;;;;;;;;;;5081262;28;20500;-67
2024/02/27 07:00:28;;;;;;;20.30;10.50;;;;;;;;;;5084917;28;20040;-68
2024/02/27 07:02:54;;;;;;;21.77;10.27;;;;;;;;;;5069583;28;20029;-64
2024/02/27 07:05:20;;;;;;;23.63;11.05;;;;;;;;;;5084237;28;20484;-67
2024/02/27 07:07:46;;;;;;;20.80;10.82;;;;;;;;;;5085200;28;20036;-66
2024/02/27 07:10:13;;;;;;;25.30;11.13;;;;;;;;;;5075509;28;20409;-65
2024/02/27 07:12:42;;;;;;;24.40;11.23;;;;;;;;;;5086782;28;20047;-66
2024/02/27 07:15:10;;;;;;;21.88;10.23;;;;;;;;;;5086387;28;20049;-66
2024/02/27 07:17:37;;;;;;;22.95;11.02;;;;;;;;;;5085929;28;20043;-66
2024/02/27 07:20:03;;;;;;;20.95;10.40;;;;;;;;;;5083586;28;20467;-65
2024/02/27 07:22:32;;;;;;;21.65;11.07;;;;;;;;;;5084151;28;20063;-66
2024/02/27 07:24:58;;;;;;;22.10;10.18;;;;;;;;;;5080911;28;20443;-67
2024/02/27 07:27:24;;;;;;;21.45;10.63;;;;;;;;;;5092775;28;20055;-67
2024/02/27 07:29:50;;;;;;;20.98;11.13;;;;;;;;;;5079668;28;20048;-67
2024/02/27 07:32:16;;;;;;;23.35;11.43;;;;;;;;;;5081118;28;20048;-65
2024/02/27 07:34:43;;;;;;;23.08;11.65;;;;;;;;;;5084153;28;20407;-67
2024/02/27 07:37:14;;;;;;;27.17;12.52;;;;;;;;;;5080083;28;20040;-66
2024/02/27 07:39:40;;;;;;;20.63;10.98;;;;;;;;;;5080776;28;20032;-66
2024/02/27 07:42:06;;;;;;;24.13;11.15;;;;;;;;;;5080498;28;20518;-67
2024/02/27 07:44:32;;;;;;;23.45;11.32;;;;;;;;;;5081714;28;20039;-66
2024/02/27 07:46:58;;;;;;;26.48;11.57;;;;;;;;;;5083083;28;20036;-67
2024/02/27 07:49:24;;;;;;;23.25;11.40;;;;;;;;;;5082613;28;20036;-66
2024/02/27 07:51:53;;;;;;;25.10;12.00;;;;;;;;;;5077605;28;20051;-66
2024/02/27 07:54:21;;;;;;;28.05;12.18;;;;;;;;;;5083039;28;20123;-67
2024/02/27 07:56:47;;;;;;;24.95;11.48;;;;;;;;;;5084864;28;20051;-66
2024/02/27 07:59:13;;;;;;;27.88;12.52;;;;;;;;;;5083263;28;20070;-67
2024/02/27 08:01:39;;;;;;;28.25;12.70;;;;;;;;;;5106029;22;20012;-60
2024/02/27 08:04:05;;;;;;;29.60;12.00;;;;;;;;;;5066946;28;20056;-59
2024/02/27 08:06:32;;;;;;;28.40;13.10;;;;;;;;;;5075088;28;20416;-59
2024/02/27 08:08:58;;;;;;;28.83;12.80;;;;;;;;;;5072175;28;20045;-58
2024/02/27 08:11:26;;;;;;;29.40;12.80;;;;;;;;;;5073994;28;20134;-58
2024/02/27 08:13:52;;;;;;;33.47;14.02;;;;;;;;;;5076090;28;20036;-59
2024/02/27 08:16:21;;;;;;;29.30;12.05;;;;;;;;;;5077695;28;20047;-59
2024/02/27 08:18:47;;;;;;;29.42;13.00;;;;;;;;;;5069348;28;20044;-59
2024/02/27 08:21:14;;;;;;;31.17;13.73;;;;;;;;;;5071782;28;20040;-58
2024/02/27 08:23:40;;;;;;;27.33;12.50;;;;;;;;;;5071969;28;20033;-58
2024/02/27 08:26:06;;;;;;;27.85;13.35;;;;;;;;;;5071866;28;20040;-58
2024/02/27 08:28:33;;;;;;;30.17;13.48;;;;;;;;;;5072895;28;20066;-59
2024/02/27 08:31:03;;;;;;;27.52;13.20;;;;;;;;;;5069095;28;20032;-59
2024/02/27 08:33:30;;;;;;;28.38;13.27;;;;;;;;;;5069394;28;20032;-59
2024/02/27 08:35:56;;;;;;;36.38;15.18;;;;;;;;;;5070498;28;20049;-59
2024/02/27 08:38:22;;;;;;;32.05;14.93;;;;;;;;;;5071571;28;20421;-59
2024/02/27 08:40:48;;;;;;;40.22;18.60;;;;;;;;;;5071157;28;20033;-58
2024/02/27 08:43:15;;;;;;;39.78;17.25;;;;;;;;;;5069393;28;20052;-58
2024/02/27 08:45:42;;;;;;;50.03;21.13;;;;;;;;;;5071722;28;20047;-59
2024/02/27 08:48:08;;;;;;;66.13;26.48;;;;;;;;;;5071305;28;20067;-58
2024/02/27 08:50:35;;;;;;;53.45;24.23;;;;;;;;;;5070599;28;20048;-59
2024/02/27 08:53:01;;;;;;;49.97;22.85;;;;;;;;;;5067691;28;20043;-59
2024/02/27 08:55:27;;;;;;;48.10;22.70;;;;;;;;;;5069788;28;20040;-59
2024/02/27 08:57:53;;;;;;;51.45;21.77;;;;;;;;;;5073986;28;20052;-58
2024/02/27 09:00:19;;;;;;;45.72;19.50;;;;;;;;;;5070422;28;20070;-59
2024/02/27 09:02:45;;;;;;;55.83;22.58;;;;;;;;;;5070023;28;20032;-59
2024/02/27 09:05:12;;;;;;;44.95;19.63;;;;;;;;;;5071268;28;20032;-58
2024/02/27 09:07:40;;;;;;;34.17;15.30;;;;;;;;;;5070956;28;20064;-58
2024/02/27 09:10:09;;;;;;;34.90;15.55;;;;;;;;;;5067870;28;20056;-58
2024/02/27 09:12:36;;;;;;;38.33;16.30;;;;;;;;;;5070595;28;20047;-59
2024/02/27 09:15:02;;;;;;;41.58;18.83;;;;;;;;;;5069776;28;20082;-59
2024/02/27 09:17:31;;;;;;;86.38;33.88;;;;;;;;;;5077020;28;20039;-59
2024/02/27 09:19:58;;;;;;;50.25;21.15;;;;;;;;;;5068934;28;20045;-60
2024/02/27 09:22:24;;;;;;;55.00;22.83;;;;;;;;;;5074480;28;20036;-59
2024/02/27 09:24:50;;;;;;;48.75;22.02;;;;;;;;;;5071297;28;20040;-59
2024/02/27 09:27:17;;;;;;;47.45;21.52;;;;;;;;;;5075406;28;20037;-58
2024/02/27 09:29:43;;;;;;;36.92;18.17;;;;;;;;;;5069555;28;20418;-59
2024/02/27 09:32:10;;;;;;;38.55;18.02;;;;;;;;;;5069260;28;20497;-59
2024/02/27 09:34:36;;;;;;;37.17;18.27;;;;;;;;;;5069598;28;20044;-59
2024/02/27 09:37:02;;;;;;;37.40;17.65;;;;;;;;;;5069412;28;20502;-58
2024/02/27 09:39:28;;;;;;;34.58;16.55;;;;;;;;;;5071842;28;20039;-59
2024/02/27 09:42:00;;;;;;;33.15;16.13;;;;;;;;;;5070131;28;20052;-58
2024/02/27 09:44:27;;;;;;;32.42;14.68;;;;;;;;;;5071459;28;20043;-58
2024/02/27 09:46:54;;;;;;;32.92;15.82;;;;;;;;;;5075349;28;20029;-58
2024/02/27 09:49:22;;;;;;;32.17;15.27;;;;;;;;;;5074103;28;20056;-59
2024/02/27 09:51:51;;;;;;;32.33;14.95;;;;;;;;;;5073726;28;20028;-58
2024/02/27 09:54:19;;;;;;;35.10;16.58;;;;;;;;;;5071711;28;20044;-58
2024/02/27 09:56:46;;;;;;;33.45;15.02;;;;;;;;;;5079031;28;20074;-59
2024/02/27 09:59:12;;;;;;;34.58;15.23;;;;;;;;;;5073488;28;20024;-58
2024/02/27 10:01:41;;;;;;;35.47;16.02;;;;;;;;;;5073731;28;20024;-59
2024/02/27 10:04:08;;;;;;;35.80;16.48;;;;;;;;;;5075558;28;20040;-59
2024/02/27 10:06:34;;;;;;;35.72;16.95;;;;;;;;;;5076115;28;20036;-59
2024/02/27 10:09:03;;;;;;;36.38;16.65;;;;;;;;;;5074730;28;20044;-59
2024/02/27 10:11:29;;;;;;;36.03;17.40;;;;;;;;;;5073481;28;20063;-59
2024/02/27 10:13:56;;;;;;;33.83;14.90;;;;;;;;;;5075310;28;20037;-59
2024/02/27 10:16:23;;;;;;;33.03;16.20;;;;;;;;;;5075389;28;20044;-59
2024/02/27 10:18:49;;;;;;;34.70;15.93;;;;;;;;;;5074922;28;20479;-59
2024/02/27 10:21:19;;;;;;;35.92;17.15;;;;;;;;;;5071873;28;20048;-58
2024/02/27 10:23:45;;;;;;;;;;;;;;;;;;5074395;28;20024;-59
2024/02/27 10:26:12;;;;;;;39.83;16.05;;;;;;;;;;5070456;28;19913;-59
2024/02/27 10:28:39;;;;;;;35.13;16.17;;;;;;;;;;5072130;28;20425;-59
2024/02/27 10:31:09;;;;;;;34.22;16.20;;;;;;;;;;5072914;28;20071;-59
2024/02/27 10:33:39;;;;;;;36.00;16.58;;;;;;;;;;5072583;28;20039;-58
2024/02/27 10:36:08;;;;;;;34.83;15.75;;;;;;;;;;5073884;28;20037;-58
2024/02/27 10:38:35;;;;;;;34.67;17.05;;;;;;;;;;5069732;28;20051;-59
2024/02/27 10:41:01;;;;;;;38.60;17.42;;;;;;;;;;5073341;28;20092;-59
2024/02/27 10:43:27;;;;;;;37.63;17.75;;;;;;;;;;5075140;28;20054;-58
2024/02/27 10:45:56;;;;;;;34.25;16.27;;;;;;;;;;5076298;28;20424;-58
2024/02/27 10:48:23;;;;;;;35.33;15.88;;;;;;;;;;5073992;28;20040;-59
2024/02/27 10:50:49;;;;;;;37.60;16.52;;;;;;;;;;5072686;28;20040;-58
2024/02/27 10:53:18;;;;;;;33.60;14.70;;;;;;;;;;5071089;28;20528;-59
2024/02/27 10:55:47;;;;;;;36.17;16.33;;;;;;;;;;5072304;28;20044;-58
2024/02/27 10:58:14;;;;;;;32.40;15.02;;;;;;;;;;5071646;28;20044;-58
2024/02/27 11:00:41;;;;;;;34.10;16.45;;;;;;;;;;5066888;28;20044;-59
2024/02/27 11:03:12;;;;;;;31.40;15.20;;;;;;;;;;5072204;28;20044;-59
2024/02/27 11:05:42;;;;;;;35.70;15.88;;;;;;;;;;5073012;28;20052;-60
2024/02/27 11:08:09;;;;;;;32.38;15.20;;;;;;;;;;5073086;28;20041;-58
2024/02/27 11:10:35;;;;;;;34.67;15.05;;;;;;;;;;5073298;28;20033;-58
2024/02/27 11:13:03;;;;;;;31.83;14.85;;;;;;;;;;5075365;28;20450;-59
2024/02/27 11:15:30;;;;;;;33.65;15.90;;;;;;;;;;5074140;28;20440;-59
2024/02/27 11:18:01;;;;;;;33.15;15.50;;;;;;;;;;5075180;28;20036;-59
2024/02/27 11:20:31;;;;;;;35.60;16.63;;;;;;;;;;5071450;28;20063;-59
2024/02/27 11:22:57;;;;;;;39.95;17.15;;;;;;;;;;5070958;28;20048;-59
2024/02/27 11:25:24;;;;;;;36.80;16.45;;;;;;;;;;5074154;28;20048;-59
2024/02/27 11:27:52;;;;;;;34.70;14.68;;;;;;;;;;5071204;28;20497;-59
2024/02/27 11:30:21;;;;;;;28.35;14.25;;;;;;;;;;5072347;28;20048;-60
2024/02/27 11:32:48;;;;;;;35.93;15.67;;;;;;;;;;5071603;28;20441;-60
2024/02/27 11:35:17;;;;;;;33.90;15.82;;;;;;;;;;5072820;28;20041;-59
2024/02/27 11:37:45;;;;;;;;;;;;;;;;;;5070914;28;20052;-60
2024/02/27 11:40:14;;;;;;;30.15;14.50;;;;;;;;;;5066728;28;19920;-59
2024/02/27 11:42:42;;;;;;;30.23;14.70;;;;;;;;;;5067965;28;20047;-59
2024/02/27 11:45:34;;;;;;;28.55;13.90;;;;;;;;;;5073571;28;20363;-59
2024/02/27 11:48:01;;;;;;;29.10;14.10;;;;;;;;;;5071567;28;20059;-59
2024/02/27 11:50:36;;;;;;;32.67;14.55;;;;;;;;;;5068408;28;20059;-59
2024/02/27 11:53:17;;;;;;;37.67;15.05;;;;;;;;;;5076205;28;20048;-60
2024/02/27 11:55:46;;;;;;;43.90;18.33;;;;;;;;;;5068772;28;20055;-59
2024/02/27 11:58:13;;;;;;;40.97;16.85;;;;;;;;;;5070971;28;20041;-60
2024/02/27 12:00:39;;;;;;;39.90;16.77;;;;;;;;;;5075328;28;20028;-59
2024/02/27 12:03:08;;;;;;;37.95;16.38;;;;;;;;;;5071545;28;20044;-58
2024/02/27 12:05:35;;;;;;;30.27;14.80;;;;;;;;;;5069525;28;20036;-59
2024/02/27 12:08:01;;;;;;;33.42;15.77;;;;;;;;;;5069222;28;20041;-59
2024/02/27 12:10:28;;;;;;;30.73;16.23;;;;;;;;;;5069625;28;20052;-59
2024/02/27 12:12:54;;;;;;;35.50;15.93;;;;;;;;;;5069525;28;20071;-60
2024/02/27 12:15:20;;;;;;;28.80;14.70;;;;;;;;;;5076069;28;20032;-60
2024/02/27 12:17:47;;;;;;;34.63;18.65;;;;;;;;;;5077161;28;20394;-60
2024/02/27 12:20:14;;;;;;;34.30;16.48;;;;;;;;;;5070949;28;20036;-60
2024/02/27 12:22:45;;;;;;;29.17;14.48;;;;;;;;;;5071843;28;20614;-60
2024/02/27 12:25:12;;;;;;;26.73;14.18;;;;;;;;;;5069704;28;20040;-59
2024/02/27 12:27:39;;;;;;;27.58;13.65;;;;;;;;;;5067020;28;20035;-59
2024/02/27 12:30:12;;;;;;;27.90;13.50;;;;;;;;;;5069360;28;20044;-60
2024/02/27 12:32:47;;;;;;;30.75;14.88;;;;;;;;;;5066401;28;20048;-60
2024/02/27 12:35:16;;;;;;;25.40;13.25;;;;;;;;;;5066938;28;20037;-59
2024/02/27 12:37:47;;;;;;;31.17;15.18;;;;;;;;;;5069753;28;20056;-59
2024/02/27 12:40:19;;;;;;;29.40;14.63;;;;;;;;;;5067479;28;20044;-59
2024/02/27 12:42:48;;;;;;;30.77;14.30;;;;;;;;;;5070265;28;20033;-59
2024/02/27 12:45:16;;;;;;;26.25;14.05;;;;;;;;;;5067009;28;20032;-59
2024/02/27 12:47:52;;;;;;;29.67;15.00;;;;;;;;;;5070049;28;20036;-58
2024/02/27 12:50:19;;;;;;;30.95;14.45;;;;;;;;;;5101290;28;20037;-60
2024/02/27 12:53:01;;;;;;;27.25;13.65;;;;;;;;;;5067170;28;20044;-60
2024/02/27 12:55:27;;;;;;;29.58;14.10;;;;;;;;;;5070669;28;20037;-60
2024/02/27 12:57:54;;;;;;;25.85;13.40;;;;;;;;;;5079971;28;20386;-60
2024/02/27 13:00:28;;;;;;;26.80;13.27;;;;;;;;;;5069057;28;20079;-60
2024/02/27 13:02:55;;;;;;;27.90;13.23;;;;;;;;;;5069543;28;20036;-59
2024/02/27 13:05:23;;;;;;;29.65;13.85;;;;;;;;;;5067530;28;20486;-60
2024/02/27 13:07:50;;;;;;;28.35;13.50;;;;;;;;;;5076545;28;20500;-60
2024/02/27 13:10:20;;;;;;;26.70;14.13;;;;;;;;;;5068648;28;20059;-60
2024/02/27 13:13:07;;;;;;;27.27;14.20;;;;;;;;;;5075718;28;20032;-61
2024/02/27 13:15:33;;;;;;;27.08;13.60;;;;;;;;;;5078301;28;20036;-59
2024/02/27 13:18:00;;;;;;;28.63;13.57;;;;;;;;;;5073221;28;20036;-60
2024/02/27 13:20:27;;;;;;;25.13;13.30;;;;;;;;;;5083093;28;20037;-59
2024/02/27 13:22:53;;;;;;;24.67;13.77;;;;;;;;;;5081093;28;20509;-60
2024/02/27 13:25:19;;;;;;;28.45;14.48;;;;;;;;;;5076141;28;20417;-59
2024/02/27 13:27:46;;;;;;;31.08;14.07;;;;;;;;;;5073271;28;20074;-60
2024/02/27 13:30:12;;;;;;;28.20;14.25;;;;;;;;;;5069307;28;20055;-60
2024/02/27 13:32:38;;;;;;;29.05;13.82;;;;;;;;;;5068122;28;20051;-59
2024/02/27 13:35:05;;;;;;;29.75;14.77;;;;;;;;;;5072808;28;20041;-60
2024/02/27 13:37:31;;;;;;;27.38;13.98;;;;;;;;;;5071748;28;20509;-60
2024/02/27 13:39:58;;;;;;;30.00;13.40;;;;;;;;;;5077188;28;20048;-59
2024/02/27 13:42:24;;;;;;;31.13;15.13;;;;;;;;;;5069819;28;20048;-60
2024/02/27 13:44:51;;;;;;;28.13;14.70;;;;;;;;;;5068789;28;20047;-59
2024/02/27 13:47:19;;;;;;;29.95;12.90;;;;;;;;;;5072818;28;20052;-60
2024/02/27 13:49:45;;;;;;;29.20;14.63;;;;;;;;;;5073354;28;20051;-59
2024/02/27 13:52:11;;;;;;;25.85;14.02;;;;;;;;;;5073672;28;20493;-60
2024/02/27 13:54:38;;;;;;;27.38;13.70;;;;;;;;;;5071399;28;20413;-59
2024/02/27 13:57:04;;;;;;;31.42;14.68;;;;;;;;;;5073732;28;20037;-60
2024/02/27 13:59:30;;;;;;;26.88;14.25;;;;;;;;;;5072818;28;20036;-59
2024/02/27 14:01:57;;;;;;;30.63;14.50;;;;;;;;;;5072001;28;20044;-59
2024/02/27 14:04:23;;;;;;;29.58;15.18;;;;;;;;;;5072588;28;20049;-59
2024/02/27 14:06:50;;;;;;;28.52;14.20;;;;;;;;;;5072448;28;20040;-59
2024/02/27 14:09:16;;;;;;;27.67;14.30;;;;;;;;;;5069909;28;20043;-59
2024/02/27 14:11:45;;;;;;;28.30;13.93;;;;;;;;;;5070088;28;20040;-59
2024/02/27 14:14:12;;;;;;;27.80;13.70;;;;;;;;;;5069583;28;20056;-60
2024/02/27 14:16:39;;;;;;;29.52;15.60;;;;;;;;;;5075884;28;20055;-59
2024/02/27 14:19:09;;;;;;;32.35;15.32;;;;;;;;;;5075872;28;20044;-59
2024/02/27 14:21:36;;;;;;;34.22;16.60;;;;;;;;;;5071348;28;20043;-60
2024/02/27 14:24:02;;;;;;;31.50;15.23;;;;;;;;;;5071261;28;20045;-60
2024/02/27 14:26:29;;;;;;;35.75;17.92;;;;;;;;;;5071476;28;20044;-59